sensor_id;sensor_type;location;lat;lon;timestamp;pressure;altitude;pressure_sealevel;temperature;humidity
45467;BME280;31212;49.734;8.490;2023-01-20T00:02:01;100097.50;;;-2.56;100.00
45467;BME280;31212;49.734;8.490;2023-01-20T00:04:27;100103.50;;;-2.54;100.00
45467;BME280;31212;49.734;8.490;2023-01-20T00:06:54;100093.81;;;-2.61;100.00
45467;BME280;31212;49.734;8.490;2023-01-20T00:09:20;100102.97;;;-2.65;100.00
45467;BME280;31212;49.734;8.490;2023-01-20T00:11:47;100100.19;;;-2.69;100.00
45467;BME280;31212;49.734;8.490;2023-01-20T00:14:13;100101.19;;;-2.66;100.00
45467;BME280;31212;49.734;8.490;2023-01-20T00:16:40;100091.78;;;-2.68;100.00
45467;BME280;31212;49.734;8.490;2023-01-20T00:19:09;100102.66;;;-2.71;100.00
45467;BME280;31212;49.734;8.490;2023-01-20T00:21:37;100108.53;;;-2.72;100.00
45467;BME280;31212;49.734;8.490;2023-01-20T00:24:04;100110.81;;;-2.77;100.00
45467;BME280;31212;49.734;8.490;2023-01-20T00:26:31;100116.78;;;-2.76;100.00
45467;BME280;31212;49.734;8.490;2023-01-20T00:28:57;100116.63;;;-2.79;100.00
45467;BME280;31212;49.734;8.490;2023-01-20T00:31:26;100124.06;;;-2.82;100.00
45467;BME280;31212;49.734;8.490;2023-01-20T00:33:54;100119.56;;;-2.88;100.00
45467;BME280;31212;49.734;8.490;2023-01-20T00:36:23;100127.66;;;-2.95;100.00
45467;BME280;31212;49.734;8.490;2023-01-20T00:38:50;100122.09;;;-3.05;100.00
45467;BME280;31212;49.734;8.490;2023-01-20T00:41:17;100129.44;;;-3.09;100.00
45467;BME280;31212;49.734;8.490;2023-01-20T00:43:44;100128.34;;;-3.14;100.00
45467;BME280;31212;49.734;8.490;2023-01-20T00:46:11;100125.69;;;-3.16;100.00
45467;BME280;31212;49.734;8.490;2023-01-20T00:48:38;100132.03;;;-3.24;100.00
45467;BME280;31212;49.734;8.490;2023-01-20T00:51:06;100134.97;;;-3.33;100.00
45467;BME280;31212;49.734;8.490;2023-01-20T00:53:34;100144.34;;;-3.32;100.00
45467;BME280;31212;49.734;8.490;2023-01-20T00:56:01;100148.44;;;-3.34;100.00
45467;BME280;31212;49.734;8.490;2023-01-20T00:58:28;100148.53;;;-3.32;100.00
45467;BME280;31212;49.734;8.490;2023-01-20T01:00:54;100153.34;;;-3.37;100.00
45467;BME280;31212;49.734;8.490;2023-01-20T01:03:23;100151.53;;;-3.40;100.00
45467;BME280;31212;49.734;8.490;2023-01-20T01:05:52;100158.00;;;-3.45;100.00
45467;BME280;31212;49.734;8.490;2023-01-20T01:08:18;100155.31;;;-3.48;100.00
45467;BME280;31212;49.734;8.490;2023-01-20T01:10:46;100162.03;;;-3.48;100.00
45467;BME280;31212;49.734;8.490;2023-01-20T01:13:12;100163.69;;;-3.49;100.00
45467;BME280;31212;49.734;8.490;2023-01-20T01:15:39;100169.63;;;-3.48;100.00
45467;BME280;31212;49.734;8.490;2023-01-20T01:18:12;100169.41;;;-3.53;100.00
45467;BME280;31212;49.734;8.490;2023-01-20T01:20:39;100171.56;;;-3.44;100.00
45467;BME280;31212;49.734;8.490;2023-01-20T01:23:05;100180.38;;;-3.38;100.00
45467;BME280;31212;49.734;8.490;2023-01-20T01:25:32;100177.59;;;-3.42;100.00
45467;BME280;31212;49.734;8.490;2023-01-20T01:28:00;100180.75;;;-3.46;100.00
45467;BME280;31212;49.734;8.490;2023-01-20T01:30:26;100182.31;;;-3.48;100.00
45467;BME280;31212;49.734;8.490;2023-01-20T01:32:53;100202.63;;;-3.48;100.00
45467;BME280;31212;49.734;8.490;2023-01-20T01:35:19;100197.84;;;-3.44;100.00
45467;BME280;31212;49.734;8.490;2023-01-20T01:37:45;100201.06;;;-3.46;100.00
45467;BME280;31212;49.734;8.490;2023-01-20T01:40:12;100204.31;;;-3.49;100.00
45467;BME280;31212;49.734;8.490;2023-01-20T01:42:39;100200.63;;;-3.54;100.00
45467;BME280;31212;49.734;8.490;2023-01-20T01:45:20;100204.69;;;-3.58;100.00
45467;BME280;31212;49.734;8.490;2023-01-20T01:47:52;100200.09;;;-3.63;100.00
45467;BME280;31212;49.734;8.490;2023-01-20T01:50:24;100202.03;;;-3.59;100.00
45467;BME280;31212;49.734;8.490;2023-01-20T01:52:52;100205.00;;;-3.51;100.00
45467;BME280;31212;49.734;8.490;2023-01-20T01:55:21;100203.88;;;-3.57;100.00
45467;BME280;31212;49.734;8.490;2023-01-20T01:57:50;100210.25;;;-3.02;100.00
45467;BME280;31212;49.734;8.490;2023-01-20T02:00:18;100213.03;;;-2.97;100.00
45467;BME280;31212;49.734;8.490;2023-01-20T02:02:45;100203.38;;;-2.88;100.00
45467;BME280;31212;49.734;8.490;2023-01-20T02:05:13;100204.88;;;-2.92;100.00
45467;BME280;31212;49.734;8.490;2023-01-20T02:07:43;100204.13;;;-3.06;100.00
45467;BME280;31212;49.734;8.490;2023-01-20T02:10:10;100210.19;;;-3.03;100.00
45467;BME280;31212;49.734;8.490;2023-01-20T02:12:37;100209.38;;;-3.02;100.00
45467;BME280;31212;49.734;8.490;2023-01-20T02:15:05;100210.41;;;-2.99;100.00
45467;BME280;31212;49.734;8.490;2023-01-20T02:17:36;100207.19;;;-2.96;100.00
45467;BME280;31212;49.734;8.490;2023-01-20T02:20:24;100210.94;;;-2.90;100.00
45467;BME280;31212;49.734;8.490;2023-01-20T02:22:57;100208.31;;;-2.91;100.00
45467;BME280;31212;49.734;8.490;2023-01-20T02:25:40;100214.94;;;-2.93;100.00
45467;BME280;31212;49.734;8.490;2023-01-20T02:28:43;100219.00;;;-2.97;100.00
45467;BME280;31212;49.734;8.490;2023-01-20T02:31:43;100217.63;;;-3.07;100.00
45467;BME280;31212;49.734;8.490;2023-01-20T02:34:14;100223.00;;;-3.17;100.00
45467;BME280;31212;49.734;8.490;2023-01-20T02:36:44;100226.41;;;-3.16;100.00
45467;BME280;31212;49.734;8.490;2023-01-20T02:39:14;100225.34;;;-3.20;100.00
45467;BME280;31212;49.734;8.490;2023-01-20T02:41:52;100220.38;;;-3.18;100.00
45467;BME280;31212;49.734;8.490;2023-01-20T02:44:27;100224.47;;;-3.21;100.00
45467;BME280;31212;49.734;8.490;2023-01-20T02:47:00;100231.94;;;-3.24;100.00
45467;BME280;31212;49.734;8.490;2023-01-20T02:49:30;100228.44;;;-3.26;100.00
45467;BME280;31212;49.734;8.490;2023-01-20T02:52:00;100230.66;;;-3.32;100.00
45467;BME280;31212;49.734;8.490;2023-01-20T02:54:32;100236.66;;;-3.30;100.00
45467;BME280;31212;49.734;8.490;2023-01-20T02:57:01;100239.97;;;-3.31;100.00
45467;BME280;31212;49.734;8.490;2023-01-20T02:59:33;100245.25;;;-3.28;100.00
45467;BME280;31212;49.734;8.490;2023-01-20T03:02:05;100246.34;;;-3.23;100.00
45467;BME280;31212;49.734;8.490;2023-01-20T03:04:37;100246.19;;;-3.26;100.00
45467;BME280;31212;49.734;8.490;2023-01-20T03:07:06;100245.66;;;-3.20;100.00
45467;BME280;31212;49.734;8.490;2023-01-20T03:09:40;100249.63;;;-3.25;100.00
45467;BME280;31212;49.734;8.490;2023-01-20T03:12:08;100246.91;;;-3.28;100.00
45467;BME280;31212;49.734;8.490;2023-01-20T03:14:37;100241.56;;;-3.33;100.00
45467;BME280;31212;49.734;8.490;2023-01-20T03:17:05;100246.13;;;-3.27;100.00
45467;BME280;31212;49.734;8.490;2023-01-20T03:19:31;100246.13;;;-3.27;100.00
45467;BME280;31212;49.734;8.490;2023-01-20T03:21:58;100247.59;;;-3.31;100.00
45467;BME280;31212;49.734;8.490;2023-01-20T03:24:25;100252.69;;;-3.31;100.00
45467;BME280;31212;49.734;8.490;2023-01-20T03:29:38;100260.56;;;-3.26;100.00
45467;BME280;31212;49.734;8.490;2023-01-20T03:32:07;100261.78;;;-3.19;100.00
45467;BME280;31212;49.734;8.490;2023-01-20T03:34:37;100266.50;;;-3.26;100.00
45467;BME280;31212;49.734;8.490;2023-01-20T03:37:05;100264.75;;;-3.27;100.00
45467;BME280;31212;49.734;8.490;2023-01-20T03:39:32;100264.44;;;-3.33;100.00
45467;BME280;31212;49.734;8.490;2023-01-20T03:42:06;100270.19;;;-3.35;100.00
45467;BME280;31212;49.734;8.490;2023-01-20T03:44:45;100270.91;;;-3.38;100.00
45467;BME280;31212;49.734;8.490;2023-01-20T03:47:22;100268.28;;;-3.40;100.00
45467;BME280;31212;49.734;8.490;2023-01-20T03:49:54;100267.38;;;-3.40;100.00
45467;BME280;31212;49.734;8.490;2023-01-20T03:52:26;100271.06;;;-3.35;100.00
45467;BME280;31212;49.734;8.490;2023-01-20T03:55:01;100267.81;;;-3.32;100.00
45467;BME280;31212;49.734;8.490;2023-01-20T03:57:33;100271.69;;;-3.39;100.00
45467;BME280;31212;49.734;8.490;2023-01-20T04:00:03;100279.13;;;-3.42;100.00
45467;BME280;31212;49.734;8.490;2023-01-20T04:02:38;100278.25;;;-3.43;100.00
45467;BME280;31212;49.734;8.490;2023-01-20T04:05:06;100279.81;;;-3.45;100.00
45467;BME280;31212;49.734;8.490;2023-01-20T04:07:33;100284.03;;;-3.45;100.00
45467;BME280;31212;49.734;8.490;2023-01-20T04:10:04;100281.22;;;-3.50;100.00
45467;BME280;31212;49.734;8.490;2023-01-20T04:12:32;100281.66;;;-3.57;100.00
45467;BME280;31212;49.734;8.490;2023-01-20T04:14:59;100280.50;;;-3.62;100.00
45467;BME280;31212;49.734;8.490;2023-01-20T04:17:26;100278.50;;;-3.68;100.00
45467;BME280;31212;49.734;8.490;2023-01-20T04:19:54;100275.59;;;-3.74;100.00
45467;BME280;31212;49.734;8.490;2023-01-20T04:22:26;100279.72;;;-3.76;100.00
45467;BME280;31212;49.734;8.490;2023-01-20T04:24:56;100276.66;;;-3.85;100.00
45467;BME280;31212;49.734;8.490;2023-01-20T04:27:26;100286.78;;;-3.85;100.00
45467;BME280;31212;49.734;8.490;2023-01-20T04:29:53;100295.19;;;-3.86;100.00
45467;BME280;31212;49.734;8.490;2023-01-20T04:32:19;100293.34;;;-3.89;100.00
45467;BME280;31212;49.734;8.490;2023-01-20T04:34:49;100292.00;;;-3.97;100.00
45467;BME280;31212;49.734;8.490;2023-01-20T04:37:17;100293.38;;;-4.02;100.00
45467;BME280;31212;49.734;8.490;2023-01-20T04:39:43;100298.88;;;-4.10;100.00
45467;BME280;31212;49.734;8.490;2023-01-20T04:42:10;100300.44;;;-4.12;100.00
45467;BME280;31212;49.734;8.490;2023-01-20T04:44:36;100299.84;;;-4.08;100.00
45467;BME280;31212;49.734;8.490;2023-01-20T04:47:03;100304.22;;;-4.05;100.00
45467;BME280;31212;49.734;8.490;2023-01-20T04:49:30;100307.13;;;-3.99;100.00
45467;BME280;31212;49.734;8.490;2023-01-20T04:51:56;100306.34;;;-3.98;100.00
45467;BME280;31212;49.734;8.490;2023-01-20T04:54:24;100309.50;;;-4.02;100.00
45467;BME280;31212;49.734;8.490;2023-01-20T04:56:51;100314.59;;;-4.15;100.00
45467;BME280;31212;49.734;8.490;2023-01-20T04:59:17;100310.91;;;-4.20;100.00
45467;BME280;31212;49.734;8.490;2023-01-20T05:01:44;100317.59;;;-4.08;100.00
45467;BME280;31212;49.734;8.490;2023-01-20T05:04:11;100319.63;;;-4.02;100.00
45467;BME280;31212;49.734;8.490;2023-01-20T05:06:37;100319.25;;;-4.08;100.00
45467;BME280;31212;49.734;8.490;2023-01-20T05:09:07;100329.81;;;-4.15;100.00
45467;BME280;31212;49.734;8.490;2023-01-20T05:11:36;100333.72;;;-4.20;100.00
45467;BME280;31212;49.734;8.490;2023-01-20T05:14:02;100334.38;;;-4.10;100.00
45467;BME280;31212;49.734;8.490;2023-01-20T05:16:29;100327.06;;;-4.18;100.00
45467;BME280;31212;49.734;8.490;2023-01-20T05:18:56;100333.72;;;-4.20;100.00
45467;BME280;31212;49.734;8.490;2023-01-20T05:21:23;100333.81;;;-4.19;100.00
45467;BME280;31212;49.734;8.490;2023-01-20T05:23:51;100346.09;;;-4.25;100.00
45467;BME280;31212;49.734;8.490;2023-01-20T05:26:18;100349.63;;;-4.23;100.00
45467;BME280;31212;49.734;8.490;2023-01-20T05:28:46;100344.72;;;-4.20;100.00
45467;BME280;31212;49.734;8.490;2023-01-20T05:31:12;100348.94;;;-4.20;100.00
45467;BME280;31212;49.734;8.490;2023-01-20T05:33:39;100352.25;;;-4.22;100.00
45467;BME280;31212;49.734;8.490;2023-01-20T05:36:06;100355.56;;;-4.23;100.00
45467;BME280;31212;49.734;8.490;2023-01-20T05:38:33;100351.88;;;-4.28;100.00
45467;BME280;31212;49.734;8.490;2023-01-20T05:41:00;100355.00;;;-4.32;100.00
45467;BME280;31212;49.734;8.490;2023-01-20T05:43:27;100366.00;;;-4.31;100.00
45467;BME280;31212;49.734;8.490;2023-01-20T05:45:55;100363.59;;;-4.43;100.00
45467;BME280;31212;49.734;8.490;2023-01-20T05:48:21;100372.44;;;-4.36;100.00
45467;BME280;31212;49.734;8.490;2023-01-20T05:50:48;100376.56;;;-4.38;100.00
45467;BME280;31212;49.734;8.490;2023-01-20T05:53:16;100377.16;;;-4.43;100.00
45467;BME280;31212;49.734;8.490;2023-01-20T05:55:43;100375.31;;;-4.45;100.00
45467;BME280;31212;49.734;8.490;2023-01-20T05:58:10;100379.28;;;-4.49;100.00
45467;BME280;31212;49.734;8.490;2023-01-20T06:00:37;100379.19;;;-4.50;100.00
45467;BME280;31212;49.734;8.490;2023-01-20T06:03:05;100383.00;;;-4.57;100.00
45467;BME280;31212;49.734;8.490;2023-01-20T06:05:32;100383.59;;;-4.61;100.00
45467;BME280;31212;49.734;8.490;2023-01-20T06:07:58;100393.22;;;-4.56;100.00
45467;BME280;31212;49.734;8.490;2023-01-20T06:10:25;100393.63;;;-4.63;100.00
45467;BME280;31212;49.734;8.490;2023-01-20T06:12:53;100396.34;;;-4.60;100.00
45467;BME280;31212;49.734;8.490;2023-01-20T06:15:20;100399.06;;;-4.57;100.00
45467;BME280;31212;49.734;8.490;2023-01-20T06:17:48;100411.16;;;-4.52;100.00
45467;BME280;31212;49.734;8.490;2023-01-20T06:20:16;100405.50;;;-4.48;100.00
45467;BME280;31212;49.734;8.490;2023-01-20T06:22:43;100404.44;;;-4.38;100.00
45467;BME280;31212;49.734;8.490;2023-01-20T06:25:09;100414.84;;;-4.34;100.00
45467;BME280;31212;49.734;8.490;2023-01-20T06:27:36;100417.06;;;-4.25;100.00
45467;BME280;31212;49.734;8.490;2023-01-20T06:30:03;100412.31;;;-4.20;100.00
45467;BME280;31212;49.734;8.490;2023-01-20T06:32:30;100419.59;;;-4.25;100.00
45467;BME280;31212;49.734;8.490;2023-01-20T06:34:56;100425.84;;;-4.33;100.00
45467;BME280;31212;49.734;8.490;2023-01-20T06:37:24;100430.91;;;-4.33;100.00
45467;BME280;31212;49.734;8.490;2023-01-20T06:39:53;100430.47;;;-4.41;100.00
45467;BME280;31212;49.734;8.490;2023-01-20T06:42:19;100429.47;;;-4.43;100.00
45467;BME280;31212;49.734;8.490;2023-01-20T06:44:46;100436.13;;;-4.45;100.00
45467;BME280;31212;49.734;8.490;2023-01-20T06:47:12;100441.28;;;-4.57;100.00
45467;BME280;31212;49.734;8.490;2023-01-20T06:49:39;100439.00;;;-4.66;100.00
45467;BME280;31212;49.734;8.490;2023-01-20T06:52:05;100432.22;;;-4.67;100.00
45467;BME280;31212;49.734;8.490;2023-01-20T06:54:34;100445.66;;;-4.68;100.00
45467;BME280;31212;49.734;8.490;2023-01-20T06:57:00;100443.72;;;-4.59;100.00
45467;BME280;31212;49.734;8.490;2023-01-20T06:59:26;100446.03;;;-4.62;100.00
45467;BME280;31212;49.734;8.490;2023-01-20T07:01:53;100455.88;;;-4.53;100.00
45467;BME280;31212;49.734;8.490;2023-01-20T07:04:20;100460.56;;;-4.46;100.00
45467;BME280;31212;49.734;8.490;2023-01-20T07:06:46;100464.69;;;-4.34;100.00
45467;BME280;31212;49.734;8.490;2023-01-20T07:09:13;100471.88;;;-4.27;100.00
45467;BME280;31212;49.734;8.490;2023-01-20T07:11:41;100471.19;;;-4.11;100.00
45467;BME280;31212;49.734;8.490;2023-01-20T07:14:08;100477.03;;;-3.99;100.00
45467;BME280;31212;49.734;8.490;2023-01-20T07:16:35;100482.69;;;-3.90;100.00
45467;BME280;31212;49.734;8.490;2023-01-20T07:19:03;100480.50;;;-3.83;100.00
45467;BME280;31212;49.734;8.490;2023-01-20T07:21:29;100487.81;;;-3.75;100.00
45467;BME280;31212;49.734;8.490;2023-01-20T07:23:58;100493.72;;;-3.61;100.00
45467;BME280;31212;49.734;8.490;2023-01-20T07:26:25;100497.22;;;-3.45;100.00
45467;BME280;31212;49.734;8.490;2023-01-20T07:28:53;100496.88;;;-3.36;100.00
45467;BME280;31212;49.734;8.490;2023-01-20T07:31:21;100495.34;;;-3.34;100.00
45467;BME280;31212;49.734;8.490;2023-01-20T07:33:48;100492.00;;;-3.33;100.00
45467;BME280;31212;49.734;8.490;2023-01-20T07:36:16;100499.97;;;-3.27;100.00
45467;BME280;31212;49.734;8.490;2023-01-20T07:38:45;100499.22;;;-3.26;100.00
45467;BME280;31212;49.734;8.490;2023-01-20T07:41:12;100505.63;;;-3.18;100.00
45467;BME280;31212;49.734;8.490;2023-01-20T07:43:40;100504.34;;;-2.96;100.00
45467;BME280;31212;49.734;8.490;2023-01-20T07:46:09;100496.03;;;-2.94;100.00
45467;BME280;31212;49.734;8.490;2023-01-20T07:48:36;100500.59;;;-2.88;100.00
45467;BME280;31212;49.734;8.490;2023-01-20T07:51:04;100509.53;;;-2.80;100.00
45467;BME280;31212;49.734;8.490;2023-01-20T07:53:33;100504.81;;;-2.74;100.00
45467;BME280;31212;49.734;8.490;2023-01-20T07:56:00;100507.00;;;-2.65;100.00
45467;BME280;31212;49.734;8.490;2023-01-20T07:58:27;100514.56;;;-2.51;100.00
45467;BME280;31212;49.734;8.490;2023-01-20T08:00:54;100507.81;;;-2.36;100.00
45467;BME280;31212;49.734;8.490;2023-01-20T08:03:22;100517.53;;;-2.29;100.00
45467;BME280;31212;49.734;8.490;2023-01-20T08:05:50;100520.06;;;-2.14;100.00
45467;BME280;31212;49.734;8.490;2023-01-20T08:08:16;100525.28;;;-1.96;100.00
45467;BME280;31212;49.734;8.490;2023-01-20T08:10:42;100530.09;;;-1.86;100.00
45467;BME280;31212;49.734;8.490;2023-01-20T08:13:09;100527.09;;;-1.78;100.00
45467;BME280;31212;49.734;8.490;2023-01-20T08:15:36;100537.34;;;-1.62;100.00
45467;BME280;31212;49.734;8.490;2023-01-20T08:18:02;100540.34;;;-1.53;100.00
45467;BME280;31212;49.734;8.490;2023-01-20T08:20:30;100528.31;;;-1.40;100.00
45467;BME280;31212;49.734;8.490;2023-01-20T08:22:57;100542.44;;;-1.45;100.00
45467;BME280;31212;49.734;8.490;2023-01-20T08:25:23;100533.59;;;-1.52;100.00
45467;BME280;31212;49.734;8.490;2023-01-20T08:27:50;100543.09;;;-1.33;100.00
45467;BME280;31212;49.734;8.490;2023-01-20T08:30:17;100541.69;;;-1.28;100.00
45467;BME280;31212;49.734;8.490;2023-01-20T08:32:43;100539.22;;;-1.26;100.00
45467;BME280;31212;49.734;8.490;2023-01-20T08:35:10;100546.06;;;-1.25;100.00
45467;BME280;31212;49.734;8.490;2023-01-20T08:37:38;100552.38;;;-1.19;100.00
45467;BME280;31212;49.734;8.490;2023-01-20T08:40:05;100550.31;;;-1.09;100.00
45467;BME280;31212;49.734;8.490;2023-01-20T08:42:32;100552.50;;;-0.99;100.00
45467;BME280;31212;49.734;8.490;2023-01-20T08:44:59;100548.38;;;-0.97;100.00
45467;BME280;31212;49.734;8.490;2023-01-20T08:47:25;100549.50;;;-0.92;100.00
45467;BME280;31212;49.734;8.490;2023-01-20T08:49:52;100552.44;;;-0.84;100.00
45467;BME280;31212;49.734;8.490;2023-01-20T08:52:19;100549.22;;;-0.80;100.00
45467;BME280;31212;49.734;8.490;2023-01-20T08:54:50;100549.69;;;-0.71;100.00
45467;BME280;31212;49.734;8.490;2023-01-20T08:57:17;100548.34;;;-0.64;100.00
45467;BME280;31212;49.734;8.490;2023-01-20T08:59:43;100544.03;;;-0.65;100.00
45467;BME280;31212;49.734;8.490;2023-01-20T09:02:11;100552.41;;;-0.51;100.00
45467;BME280;31212;49.734;8.490;2023-01-20T09:04:38;100546.94;;;-0.41;100.00
45467;BME280;31212;49.734;8.490;2023-01-20T09:07:04;100559.63;;;0.10;100.00
45467;BME280;31212;49.734;8.490;2023-01-20T09:09:31;100556.63;;;0.19;100.00
45467;BME280;31212;49.734;8.490;2023-01-20T09:11:59;100559.53;;;0.09;100.00
45467;BME280;31212;49.734;8.490;2023-01-20T09:14:26;100554.66;;;-0.05;100.00
45467;BME280;31212;49.734;8.490;2023-01-20T09:16:52;100551.88;;;-0.09;100.00
45467;BME280;31212;49.734;8.490;2023-01-20T09:19:19;100549.03;;;-0.15;100.00
45467;BME280;31212;49.734;8.490;2023-01-20T09:21:45;100545.75;;;-0.13;99.81
45467;BME280;31212;49.734;8.490;2023-01-20T09:24:12;100544.06;;;-0.30;99.45
45467;BME280;31212;49.734;8.490;2023-01-20T09:26:38;100550.25;;;-0.25;99.46
45467;BME280;31212;49.734;8.490;2023-01-20T09:29:09;100553.84;;;0.14;99.28
45467;BME280;31212;49.734;8.490;2023-01-20T09:31:37;100549.91;;;0.21;98.98
45467;BME280;31212;49.734;8.490;2023-01-20T09:34:04;100545.97;;;0.28;98.23
45467;BME280;31212;49.734;8.490;2023-01-20T09:36:31;100548.66;;;0.31;98.05
45467;BME280;31212;49.734;8.490;2023-01-20T09:38:57;100554.72;;;0.33;98.44
45467;BME280;31212;49.734;8.490;2023-01-20T09:41:45;100565.47;;;0.26;97.88
45467;BME280;31212;49.734;8.490;2023-01-20T09:44:47;100566.63;;;0.32;98.06
45467;BME280;31212;49.734;8.490;2023-01-20T09:47:21;100554.78;;;0.35;97.70
45467;BME280;31212;49.734;8.490;2023-01-20T09:50:12;100559.38;;;0.60;97.35
45467;BME280;31212;49.734;8.490;2023-01-20T09:53:04;100551.03;;;0.64;96.98
45467;BME280;31212;49.734;8.490;2023-01-20T09:55:41;100550.50;;;0.71;96.65
45467;BME280;31212;49.734;8.490;2023-01-20T09:58:18;100542.31;;;0.78;96.16
45467;BME280;31212;49.734;8.490;2023-01-20T10:00:52;100539.47;;;0.92;95.50
45467;BME280;31212;49.734;8.490;2023-01-20T10:03:27;100540.56;;;1.16;95.73
45467;BME280;31212;49.734;8.490;2023-01-20T10:06:05;100538.03;;;1.38;94.78
45467;BME280;31212;49.734;8.490;2023-01-20T10:08:41;100509.84;;;1.36;93.57
45467;BME280;31212;49.734;8.490;2023-01-20T10:11:13;100503.63;;;1.72;92.80
45467;BME280;31212;49.734;8.490;2023-01-20T10:13:44;100492.50;;;1.92;91.98
45467;BME280;31212;49.734;8.490;2023-01-20T10:16:25;100465.59;;;2.04;90.99
45467;BME280;31212;49.734;8.490;2023-01-20T10:18:56;100442.88;;;2.11;90.68
45467;BME280;31212;49.734;8.490;2023-01-20T10:21:31;100434.66;;;2.20;90.10
45467;BME280;31212;49.734;8.490;2023-01-20T10:24:03;100413.53;;;2.26;89.51
45467;BME280;31212;49.734;8.490;2023-01-20T10:26:35;100409.03;;;2.44;88.82
45467;BME280;31212;49.734;8.490;2023-01-20T10:29:06;100402.78;;;2.60;88.06
45467;BME280;31212;49.734;8.490;2023-01-20T10:31:42;100379.75;;;2.62;87.60
45467;BME280;31212;49.734;8.490;2023-01-20T10:34:12;100360.47;;;2.72;87.33
45467;BME280;31212;49.734;8.490;2023-01-20T10:36:44;100347.06;;;2.80;86.34
45467;BME280;31212;49.734;8.490;2023-01-20T10:39:22;100354.31;;;2.92;86.75
45467;BME280;31212;49.734;8.490;2023-01-20T10:41:54;100329.66;;;2.96;85.61
45467;BME280;31212;49.734;8.490;2023-01-20T10:44:23;100314.78;;;3.13;85.51
45467;BME280;31212;49.734;8.490;2023-01-20T10:46:59;100313.13;;;3.13;85.40
45467;BME280;31212;49.734;8.490;2023-01-20T10:50:01;100294.06;;;3.05;85.17
45467;BME280;31212;49.734;8.490;2023-01-20T10:52:42;100283.72;;;2.76;84.71
45467;BME280;31212;49.734;8.490;2023-01-20T10:55:20;100279.97;;;2.66;84.90
45467;BME280;31212;49.734;8.490;2023-01-20T10:57:53;100278.22;;;2.65;84.79
45467;BME280;31212;49.734;8.490;2023-01-20T11:00:24;100284.78;;;2.83;84.37
45467;BME280;31212;49.734;8.490;2023-01-20T11:02:54;100254.66;;;2.76;83.98
45467;BME280;31212;49.734;8.490;2023-01-20T11:05:24;100244.28;;;2.73;83.75
45467;BME280;31212;49.734;8.490;2023-01-20T11:07:53;100233.97;;;3.56;82.58
45467;BME280;31212;49.734;8.490;2023-01-20T11:10:24;100142.28;;;4.16;80.33
45467;BME280;31212;49.734;8.490;2023-01-20T11:12:54;100076.78;;;3.98;78.32
45467;BME280;31212;49.734;8.490;2023-01-20T11:15:24;100066.91;;;3.47;78.88
45467;BME280;31212;49.734;8.490;2023-01-20T11:18:21;100122.31;;;4.06;78.98
45467;BME280;31212;49.734;8.490;2023-01-20T11:20:49;100081.66;;;3.87;78.33
45467;BME280;31212;49.734;8.490;2023-01-20T11:23:19;100091.53;;;4.07;78.11
45467;BME280;31212;49.734;8.490;2023-01-20T11:25:52;100070.44;;;4.20;77.76
45467;BME280;31212;49.734;8.490;2023-01-20T11:28:20;100049.03;;;4.20;77.38
45467;BME280;31212;49.734;8.490;2023-01-20T11:30:50;100056.06;;;4.29;77.62
45467;BME280;31212;49.734;8.490;2023-01-20T11:33:19;100062.06;;;4.67;76.92
45467;BME280;31212;49.734;8.490;2023-01-20T11:35:58;100013.81;;;4.55;76.09
45467;BME280;31212;49.734;8.490;2023-01-20T11:38:26;99984.75;;;5.02;74.77
45467;BME280;31212;49.734;8.490;2023-01-20T11:40:54;99930.03;;;5.13;74.00
45467;BME280;31212;49.734;8.490;2023-01-20T11:43:30;99911.47;;;5.31;73.55
45467;BME280;31212;49.734;8.490;2023-01-20T11:46:11;99884.06;;;5.34;72.31
45467;BME280;31212;49.734;8.490;2023-01-20T11:48:37;99862.13;;;5.58;71.52
45467;BME280;31212;49.734;8.490;2023-01-20T11:51:18;99852.06;;;5.75;71.79
45467;BME280;31212;49.734;8.490;2023-01-20T11:53:45;99881.25;;;5.76;71.89
45467;BME280;31212;49.734;8.490;2023-01-20T11:56:16;99897.97;;;5.44;71.25
45467;BME280;31212;49.734;8.490;2023-01-20T11:58:52;99905.34;;;5.79;71.03
45467;BME280;31212;49.734;8.490;2023-01-20T12:01:23;99904.88;;;6.03;71.03
45467;BME280;31212;49.734;8.490;2023-01-20T12:04:22;99884.44;;;6.19;69.73
45467;BME280;31212;49.734;8.490;2023-01-20T12:07:00;99753.84;;;6.19;67.91
45467;BME280;31212;49.734;8.490;2023-01-20T12:09:31;99716.78;;;6.06;67.66
45467;BME280;31212;49.734;8.490;2023-01-20T12:12:01;99655.22;;;5.54;66.81
45467;BME280;31212;49.734;8.490;2023-01-20T12:14:31;99722.38;;;5.71;67.36
45467;BME280;31212;49.734;8.490;2023-01-20T12:17:12;99755.06;;;5.79;68.12
45467;BME280;31212;49.734;8.490;2023-01-20T12:19:56;99760.66;;;6.13;67.07
45467;BME280;31212;49.734;8.490;2023-01-20T12:22:31;99732.34;;;6.16;67.34
45467;BME280;31212;49.734;8.490;2023-01-20T12:25:03;99701.81;;;5.76;66.36
45467;BME280;31212;49.734;8.490;2023-01-20T12:27:46;99759.75;;;6.06;66.99
45467;BME280;31212;49.734;8.490;2023-01-20T12:30:26;99704.97;;;6.30;66.06
45467;BME280;31212;49.734;8.490;2023-01-20T12:32:54;99640.16;;;5.88;65.85
45467;BME280;31212;49.734;8.490;2023-01-20T12:35:22;99683.06;;;5.14;66.86
45467;BME280;31212;49.734;8.490;2023-01-20T12:37:56;99751.78;;;5.23;67.46
45467;BME280;31212;49.734;8.490;2023-01-20T12:40:31;99787.78;;;5.84;67.23
45467;BME280;31212;49.734;8.490;2023-01-20T12:43:23;99664.00;;;5.72;65.40
45467;BME280;31212;49.734;8.490;2023-01-20T12:46:04;99658.47;;;5.39;65.63
45467;BME280;31212;49.734;8.490;2023-01-20T12:48:43;99718.72;;;4.91;67.00
45467;BME280;31212;49.734;8.490;2023-01-20T12:51:26;99747.44;;;4.64;67.30
45467;BME280;31212;49.734;8.490;2023-01-20T12:54:19;99822.44;;;4.40;68.56
45467;BME280;31212;49.734;8.490;2023-01-20T12:56:57;99838.78;;;4.43;68.58
45467;BME280;31212;49.734;8.490;2023-01-20T12:59:38;99857.13;;;4.62;68.76
45467;BME280;31212;49.734;8.490;2023-01-20T13:02:23;99880.78;;;4.91;68.72
45467;BME280;31212;49.734;8.490;2023-01-20T13:07:55;99866.47;;;4.58;68.78
45467;BME280;31212;49.734;8.490;2023-01-20T13:10:44;99905.94;;;4.17;69.80